Brandon, Florida
Current Conditions -  °F | °C
As of 8:35 PM on Monday 22 Dec 2014 (Local Time) from KVDF Reporting Station
Clear Clear  
Wind Chill: 73°   Ceiling: Unl
Heat Index: 73°   Visibility: 10mi
Dew Point: 68°   Wind: 6mph
Humidity: 83%   Direction: 210°SSW
Pressure: 29.96"   Gusts: NA
Location:  27.94°N, 82.32°W
Report Text: KVDF 230135Z AUTO 21005KT 10SM CLR 23/20 A2996 RMK AO2
Loading
Personal Weather Stations






























Interactive Weather Map New forecast layout! Learn more

10-Day Weather Forecast

Advertisements
Track Severe Weather on mobile